Etusivu
METAR-TAF:

METAR-TAF

Lentoasemat :

Hammond Northshore Regional Airport

Hammond, Louisiana, Yhdysvallat

Leveyspiiri: 30-31-15N, Pituuspiiri: 090-25-03W, korkeus merenpinnasta: 13 m

Tämänhetkinen sää

Tämä raportti tehtiin 16 minuuttia sitten, kello 03.35 UTC
Tuuli 3 kn etelästä/kaakosta
Lämpötila 23°C
Kosteus 94%
Ilmanpaine 1020 hPa
Näkyvyys: 16.1 km
selkeää

METAR: KHDC 260335Z AUTO 15003KT 10SM CLR 23/22 A3011 RMK AO2 PWINO

Aika: 22:51 (03:51 UTC)

Sääennuste

Tämä raportti tehtiin 4 tuntia ja 31 minuuttia sitten, kello 23.20 UTC
Ennuste voimassa 26. päivästä klo 00 UTC - 26. päivään klo 24 UTC
Tuuli 4 kn etelästä
Näkyvyys: 10 km
selkeää
From 26. päivästä klo 1200 UTC
Tuuli kn pohjoisesta
Näkyvyys: 9.7 km
Hajanaisia pilviä 100 ft:n korkeudessa
utua
From 26. päivästä klo 1500 UTC
Tuuli kn pohjoisesta
Näkyvyys: 10 km
selkeää

TAF: KHDC 252320Z 2600/2624 19004KT P6SM SKC FM261200 00000KT 6SM BR SCT001 FM261500 00000KT P6SM SKC

Säähavainnot ja -ennusteet yli 4000 lentoasemalta (METAR- ja TAF-raportit).

Käytössä olevat sääasemat on merkitty karttaan keltaisilla ja punaisilla pisteillä.

Aseta hiiri pisteen päälle nähdäksesi sääaseman nimen.

Klikkaa sitten nähdäksesi säähavainnot ja -ennusteet.

Kartan vaihtaminen: klikkaa mustalla rastilla varustettuja vihreitä pisteitä, niin voit zoomata sisään; viivalla varustettua vihreää pistettä, niin voit zoomata ulos tai vihreitä nuolia, niin pääset viereisille kartoille.


METAR-TAF: